Time;durP1;ratioP1;P1;durP2;ratioP2;P2;SDS_P1;SDS_P2;PMS_P1;PMS_P2;Temp;Humidity;BMP_temperature;BMP_pressure;BME280_temperature;BME280_humidity;BME280_pressure;Samples;Min_cycle;Max_cycle;Signal;HPM_P1;HPM_P2
2022/08/21 00:00:45;;;;;;;5.47;3.00;;;;;;;13.18;100.00;101450.22;5015207;28;20219;-50
2022/08/21 00:03:11;;;;;;;8.18;3.22;;;;;;;13.22;100.00;101458.16;5026050;28;20643;-47
2022/08/21 00:05:41;;;;;;;8.07;3.60;;;;;;;13.16;100.00;101459.25;5024483;28;20527;-48
2022/08/21 00:08:07;;;;;;;7.93;3.25;;;;;;;13.20;100.00;101447.44;5020879;28;20703;-51
2022/08/21 00:10:33;;;;;;;7.13;3.25;;;;;;;13.32;100.00;101448.84;5022139;28;20199;-51
2022/08/21 00:13:00;;;;;;;6.88;2.95;;;;;;;13.34;100.00;101442.44;5024334;28;20188;-52
2022/08/21 00:15:29;;;;;;;6.60;3.00;;;;;;;13.30;100.00;101445.31;5026422;28;20314;-51
2022/08/21 00:17:56;;;;;;;6.30;2.80;;;;;;;13.45;100.00;101454.59;5028329;28;20180;-51
2022/08/21 00:20:22;;;;;;;4.13;2.70;;;;;;;13.50;100.00;101448.06;5029512;28;20192;-53
2022/08/21 00:22:49;;;;;;;7.75;3.08;;;;;;;13.47;100.00;101447.31;5012427;28;20193;-51
2022/08/21 00:25:15;;;;;;;5.60;2.95;;;;;;;13.40;100.00;101446.69;5013161;28;20197;-52
2022/08/21 00:27:42;;;;;;;9.90;2.90;;;;;;;13.34;100.00;101445.13;5016090;28;20201;-51
2022/08/21 00:30:09;;;;;;;6.82;3.00;;;;;;;13.34;100.00;101437.06;5020044;28;20280;-52
2022/08/21 00:32:37;;;;;;;8.60;3.03;;;;;;;13.31;100.00;101436.28;5021804;28;20739;-51
2022/08/21 00:35:05;;;;;;;5.90;2.85;;;;;;;13.45;100.00;101433.94;5019302;28;20204;-52
2022/08/21 00:37:31;;;;;;;7.90;3.15;;;;;;;13.26;100.00;101427.50;5017393;28;20187;-52
2022/08/21 00:39:56;;;;;;;8.00;2.70;;;;;;;13.23;100.00;101439.28;5014718;28;20271;-52
2022/08/21 00:42:22;;;;;;;7.05;2.72;;;;;;;13.33;100.00;101440.66;5013472;28;20200;-51
2022/08/21 00:44:49;;;;;;;6.85;3.00;;;;;;;13.29;100.00;101439.03;5011325;28;20705;-50
2022/08/21 00:47:15;;;;;;;5.53;2.60;;;;;;;13.21;100.00;101441.16;5011544;28;20233;-51
2022/08/21 00:49:41;;;;;;;6.43;3.05;;;;;;;13.26;100.00;101449.03;5013568;28;20651;-52
2022/08/21 00:52:13;;;;;;;8.98;2.67;;;;;;;13.32;100.00;101441.63;5015460;28;20668;-50
2022/08/21 00:54:40;;;;;;;6.55;2.55;;;;;;;13.52;100.00;101440.81;5017494;28;20862;-51
2022/08/21 00:57:15;;;;;;;5.28;3.03;;;;;;;13.54;100.00;101448.84;5019254;28;20188;-52
2022/08/21 00:59:45;;;;;;;5.05;2.30;;;;;;;13.62;100.00;101446.69;5020836;28;20198;-51
2022/08/21 01:02:11;;;;;;;5.93;2.60;;;;;;;13.38;100.00;101451.25;5016354;28;20707;-52
2022/08/21 01:04:38;;;;;;;5.28;2.65;;;;;;;13.27;100.00;101450.78;5019340;28;20192;-51
2022/08/21 01:07:04;;;;;;;4.53;2.90;;;;;;;13.35;100.00;101451.38;5013334;28;20177;-52
2022/08/21 01:09:30;;;;;;;6.90;3.25;;;;;;;13.45;100.00;101444.72;5016429;28;20207;-53
2022/08/21 01:11:55;;;;;;;7.03;2.70;;;;;;;13.28;100.00;101447.16;5023331;28;20355;-51
2022/08/21 01:14:21;;;;;;;5.90;2.35;;;;;;;13.49;100.00;101458.91;5026040;28;20235;-51
2022/08/21 01:16:49;;;;;;;5.30;2.40;;;;;;;13.55;100.00;101445.19;5016949;28;20635;-52
2022/08/21 01:19:17;;;;;;;5.15;2.40;;;;;;;13.46;100.00;101450.97;5022031;28;20249;-51
2022/08/21 01:21:43;;;;;;;7.20;2.60;;;;;;;13.55;100.00;101453.28;5020419;28;20184;-52
2022/08/21 01:24:08;;;;;;;6.82;2.53;;;;;;;13.56;100.00;101457.72;5018802;28;20206;-51
2022/08/21 01:26:35;;;;;;;5.40;2.50;;;;;;;13.59;100.00;101446.81;5016762;28;20614;-51
2022/08/21 01:29:15;;;;;;;4.20;2.28;;;;;;;13.58;100.00;101454.03;5014313;28;20222;-51
2022/08/21 01:31:41;;;;;;;8.10;2.47;;;;;;;13.62;100.00;101444.00;5012844;28;20199;-51
2022/08/21 01:34:08;;;;;;;4.68;2.53;;;;;;;13.71;100.00;101450.81;5019453;28;20564;-51
2022/08/21 01:36:34;;;;;;;5.68;2.42;;;;;;;13.72;100.00;101458.84;5013120;28;20183;-52
2022/08/21 01:39:00;;;;;;;5.85;2.70;;;;;;;13.78;100.00;101457.72;5012492;28;20185;-53
2022/08/21 01:41:25;;;;;;;8.02;3.10;;;;;;;13.84;100.00;101453.88;5014974;28;20196;-51
2022/08/21 01:43:51;;;;;;;4.78;2.42;;;;;;;13.85;100.00;101450.25;5016390;28;20765;-51
2022/08/21 01:46:17;;;;;;;6.38;2.38;;;;;;;13.87;100.00;101454.63;5018651;28;20655;-51
2022/08/21 01:48:43;;;;;;;8.00;2.17;;;;;;;13.85;100.00;101459.22;5020016;28;20204;-51
2022/08/21 01:51:08;;;;;;;6.63;2.78;;;;;;;13.87;100.00;101453.78;5022485;28;20291;-52
2022/08/21 01:53:36;;;;;;;8.15;2.80;;;;;;;13.95;100.00;101457.91;5024707;28;20671;-51
2022/08/21 01:56:07;;;;;;;8.43;3.30;;;;;;;13.91;100.00;101450.88;5026185;28;20172;-51
2022/08/21 01:58:33;;;;;;;6.55;2.72;;;;;;;13.97;100.00;101456.00;5028194;28;20191;-52
2022/08/21 02:01:01;;;;;;;6.28;2.78;;;;;;;13.97;100.00;101452.41;5010766;28;20192;-51
2022/08/21 02:03:28;;;;;;;8.32;3.15;;;;;;;13.90;100.00;101450.94;5012536;28;20193;-51
2022/08/21 02:05:54;;;;;;;6.32;2.65;;;;;;;13.97;100.00;101455.13;5014526;28;20197;-53
2022/08/21 02:08:22;;;;;;;10.00;3.10;;;;;;;13.92;100.00;101455.31;5016570;28;20400;-53
2022/08/21 02:10:50;;;;;;;5.90;2.70;;;;;;;13.94;100.00;101450.75;5022416;28;20206;-53
2022/08/21 02:13:16;;;;;;;5.43;2.92;;;;;;;13.78;100.00;101446.94;5023996;28;20185;-53
2022/08/21 02:15:42;;;;;;;7.97;3.00;;;;;;;13.77;100.00;101451.47;5022151;28;20289;-51
2022/08/21 02:18:07;;;;;;;8.52;2.72;;;;;;;13.69;100.00;101450.91;5022486;28;20211;-52
2022/08/21 02:20:37;;;;;;;9.57;3.08;;;;;;;13.45;100.00;101443.84;5025392;28;20176;-50
2022/08/21 02:23:04;;;;;;;6.18;2.58;;;;;;;13.42;100.00;101450.19;5028304;28;20179;-53
2022/08/21 02:25:30;;;;;;;8.25;3.30;;;;;;;13.39;100.00;101450.34;5013402;28;20235;-55
2022/08/21 02:27:58;;;;;;;7.45;2.78;;;;;;;13.36;100.00;101448.66;5015863;28;20196;-52
2022/08/21 02:30:33;;;;;;;6.05;3.20;;;;;;;13.28;100.00;101442.69;5017099;28;20187;-51
2022/08/21 02:32:59;;;;;;;5.53;2.88;;;;;;;13.18;100.00;101447.53;5025522;28;20192;-52
2022/08/21 02:35:25;;;;;;;12.27;3.63;;;;;;;13.11;100.00;101443.31;5023378;28;20639;-51
2022/08/21 02:37:55;;;;;;;6.65;2.70;;;;;;;13.01;100.00;101454.47;5022369;28;20184;-52
2022/08/21 02:40:25;;;;;;;8.40;3.28;;;;;;;12.98;100.00;101448.28;5025242;28;20677;-52
2022/08/21 02:42:51;;;;;;;8.02;2.47;;;;;;;12.94;100.00;101452.03;5027257;28;20184;-53
2022/08/21 02:45:18;;;;;;;3.83;2.35;;;;;;;12.98;100.00;101442.03;5029390;28;20199;-51
2022/08/21 02:47:51;;;;;;;6.05;2.65;;;;;;;12.89;100.00;101440.56;5031309;28;20186;-51
2022/08/21 02:50:23;;;;;;;4.72;2.42;;;;;;;12.84;100.00;101447.94;5015216;28;20264;-50
2022/08/21 02:52:50;;;;;;;7.95;3.20;;;;;;;12.70;100.00;101437.72;5015433;28;20230;-51
2022/08/21 02:55:16;;;;;;;4.75;2.88;;;;;;;12.57;100.00;101439.97;5027257;28;20210;-51
2022/08/21 02:57:41;;;;;;;7.72;3.35;;;;;;;12.50;100.00;101449.16;5025491;28;20184;-51
2022/08/21 03:00:09;;;;;;;6.38;2.70;;;;;;;12.59;100.00;101450.66;5022801;28;20648;-52
2022/08/21 03:02:34;;;;;;;3.90;2.60;;;;;;;12.73;100.00;101455.53;5022210;28;20557;-51
2022/08/21 03:05:00;;;;;;;5.75;2.80;;;;;;;12.80;100.00;101440.91;5023692;28;20212;-53
2022/08/21 03:07:26;;;;;;;4.85;2.97;;;;;;;12.76;100.00;101450.91;5019633;28;20180;-53
2022/08/21 03:09:51;;;;;;;5.93;2.65;;;;;;;12.86;100.00;101448.75;5015448;28;20200;-53
2022/08/21 03:12:17;;;;;;;7.78;3.22;;;;;;;12.57;100.00;101436.38;5013606;28;20183;-51
2022/08/21 03:14:42;;;;;;;6.35;3.00;;;;;;;12.66;100.00;101432.47;5012928;28;20750;-51
2022/08/21 03:17:08;;;;;;;5.70;3.38;;;;;;;12.64;100.00;101428.97;5014845;28;20625;-53
2022/08/21 03:19:34;;;;;;;4.32;2.40;;;;;;;12.76;100.00;101429.38;5016460;28;20164;-52
2022/08/21 03:22:00;;;;;;;5.45;3.33;;;;;;;12.68;100.00;101434.19;5018938;28;20276;-52
2022/08/21 03:24:26;;;;;;;8.50;3.38;;;;;;;12.70;100.00;101426.06;5020292;28;20633;-51
2022/08/21 03:26:51;;;;;;;6.53;3.10;;;;;;;12.58;100.00;101430.09;5022676;28;20553;-51
2022/08/21 03:29:16;;;;;;;5.57;2.92;;;;;;;12.68;100.00;101426.13;5023372;28;20212;-51
2022/08/21 03:31:42;;;;;;;9.18;3.30;;;;;;;12.46;100.00;101430.53;5025021;28;20188;-52
2022/08/21 03:34:07;;;;;;;5.72;2.78;;;;;;;12.49;100.00;101428.63;5027845;28;20282;-52
2022/08/21 03:36:33;;;;;;;5.40;3.00;;;;;;;12.42;100.00;101421.72;5028661;28;20184;-52
2022/08/21 03:38:58;;;;;;;5.03;3.20;;;;;;;12.52;100.00;101424.94;5012272;28;20847;-51
2022/08/21 03:41:24;;;;;;;7.10;2.70;;;;;;;12.35;100.00;101423.75;5014143;28;20188;-52
2022/08/21 03:43:49;;;;;;;7.22;3.80;;;;;;;12.24;100.00;101425.91;5015656;28;20293;-52
2022/08/21 03:46:14;;;;;;;8.20;2.95;;;;;;;12.29;100.00;101418.59;5017975;28;20219;-51
2022/08/21 03:48:40;;;;;;;6.82;2.90;;;;;;;12.21;100.00;101425.19;5019129;28;20617;-52
2022/08/21 03:51:06;;;;;;;6.50;2.92;;;;;;;12.19;100.00;101416.28;5020864;28;20188;-52
2022/08/21 03:53:32;;;;;;;6.95;2.60;;;;;;;12.31;100.00;101424.78;5022950;28;20199;-53
2022/08/21 03:55:58;;;;;;;5.20;3.28;;;;;;;12.23;100.00;101423.31;5024983;28;20550;-52
2022/08/21 03:58:26;;;;;;;5.55;2.78;;;;;;;12.24;100.00;101425.91;5026640;28;20175;-52
2022/08/21 04:00:55;;;;;;;4.68;3.13;;;;;;;12.20;100.00;101432.38;5019639;28;20184;-51
2022/08/21 04:03:21;;;;;;;6.20;3.03;;;;;;;12.12;100.00;101423.69;5025753;28;20244;-53
2022/08/21 04:05:47;;;;;;;4.40;2.78;;;;;;;12.07;100.00;101420.28;5016771;28;20188;-52
2022/08/21 04:08:14;;;;;;;7.45;3.45;;;;;;;12.04;100.00;101426.63;5015168;28;20743;-52
2022/08/21 04:10:42;;;;;;;4.32;2.92;;;;;;;12.05;100.00;101427.53;5016704;28;20192;-54
2022/08/21 04:13:08;;;;;;;5.00;3.25;;;;;;;12.03;100.00;101430.25;5025488;28;20172;-52
2022/08/21 04:15:34;;;;;;;7.43;3.83;;;;;;;11.95;100.00;101440.38;5021475;28;20188;-51
2022/08/21 04:17:59;;;;;;;6.50;3.60;;;;;;;11.94;100.00;101430.59;5018657;28;20180;-52
2022/08/21 04:20:25;;;;;;;3.33;2.88;;;;;;;11.97;100.00;101418.84;5016259;28;20208;-52
2022/08/21 04:22:51;;;;;;;6.35;3.45;;;;;;;11.91;100.00;101425.31;5014608;28;20235;-51
2022/08/21 04:25:20;;;;;;;5.07;3.33;;;;;;;11.98;100.00;101418.78;5012873;28;20197;-52
2022/08/21 04:27:45;;;;;;;5.22;3.38;;;;;;;12.05;100.00;101431.09;5010911;28;20219;-51
2022/08/21 04:30:13;;;;;;;4.07;2.80;;;;;;;12.07;100.00;101423.84;5010541;28;20189;-53
2022/08/21 04:32:41;;;;;;;3.03;2.80;;;;;;;12.12;100.00;101429.06;5014213;28;20199;-52
2022/08/21 04:35:10;;;;;;;6.10;2.80;;;;;;;12.13;100.00;101426.34;5015507;28;20193;-52
2022/08/21 04:37:36;;;;;;;6.13;3.10;;;;;;;12.09;100.00;101426.47;5018507;28;20644;-53
2022/08/21 04:40:03;;;;;;;8.98;3.50;;;;;;;12.03;100.00;101421.34;5019469;28;20263;-52
2022/08/21 04:42:28;;;;;;;6.10;3.38;;;;;;;12.09;100.00;101429.16;5021758;28;20264;-51
2022/08/21 04:44:54;;;;;;;5.75;3.30;;;;;;;12.01;100.00;101428.56;5023546;28;20762;-51
2022/08/21 04:47:21;;;;;;;3.67;3.15;;;;;;;12.10;100.00;101436.28;5025846;28;20180;-52
2022/08/21 04:49:46;;;;;;;4.95;3.42;;;;;;;12.03;100.00;101432.06;5027449;28;20273;-51
2022/08/21 04:52:15;;;;;;;6.88;3.65;;;;;;;12.24;100.00;101433.13;5026651;28;20223;-52
2022/08/21 04:54:43;;;;;;;5.70;3.47;;;;;;;12.74;100.00;101442.00;5018359;28;20678;-53
2022/08/21 04:57:10;;;;;;;6.82;3.40;;;;;;;13.14;100.00;101428.84;5016518;28;20173;-53
2022/08/21 04:59:45;;;;;;;4.32;2.80;;;;;;;13.35;100.00;101437.94;5015575;28;20180;-51
2022/08/21 05:02:10;;;;;;;4.80;3.10;;;;;;;13.45;100.00;101439.31;5022279;28;20549;-52
2022/08/21 05:04:44;;;;;;;6.15;3.40;;;;;;;13.50;99.76;101431.94;5021368;28;20246;-52
2022/08/21 05:07:14;;;;;;;5.05;2.97;;;;;;;13.66;98.95;101436.69;5022885;28;20181;-53
2022/08/21 05:09:39;;;;;;;5.30;3.30;;;;;;;13.69;98.31;101437.44;5022067;28;20215;-52
2022/08/21 05:12:05;;;;;;;5.05;3.13;;;;;;;13.73;97.64;101443.56;5018915;28;20658;-52
2022/08/21 05:14:31;;;;;;;3.45;2.78;;;;;;;13.87;97.20;101448.38;5012162;28;20570;-54
2022/08/21 05:16:56;;;;;;;5.60;2.70;;;;;;;14.00;96.54;101446.91;5010789;28;20585;-52
2022/08/21 05:19:23;;;;;;;5.53;3.17;;;;;;;14.09;96.34;101440.25;5010797;28;20188;-51
2022/08/21 05:21:48;;;;;;;5.65;2.92;;;;;;;14.18;95.74;101437.16;5013432;28;20180;-51
2022/08/21 05:24:15;;;;;;;3.75;2.40;;;;;;;14.25;95.41;101441.34;5014408;28;20211;-52
2022/08/21 05:26:41;;;;;;;6.80;2.80;;;;;;;14.35;95.31;101442.69;5017456;28;20171;-53
2022/08/21 05:29:06;;;;;;;4.53;2.47;;;;;;;14.47;94.92;101430.47;5019746;28;20196;-52
2022/08/21 05:31:32;;;;;;;4.75;2.83;;;;;;;14.60;94.65;101430.81;5018252;28;20188;-52
2022/08/21 05:33:58;;;;;;;3.88;2.55;;;;;;;14.76;94.49;101433.72;5016067;28;20282;-47
2022/08/21 05:36:24;;;;;;;10.20;2.88;;;;;;;14.92;94.44;101440.16;5014134;28;20200;-48
2022/08/21 05:38:49;;;;;;;9.93;2.80;;;;;;;15.15;93.98;101435.47;5011779;28;20588;-48
2022/08/21 05:41:15;;;;;;;5.28;2.30;;;;;;;15.33;93.26;101433.75;5010636;28;20561;-50
2022/08/21 05:43:41;;;;;;;4.10;2.33;;;;;;;15.38;92.39;101437.94;5010887;28;20208;-48
2022/08/21 05:46:07;;;;;;;3.47;2.30;;;;;;;15.66;92.16;101432.06;5011414;28;20168;-47
2022/08/21 05:48:34;;;;;;;5.18;2.60;;;;;;;15.84;91.51;101435.69;5016328;28;20703;-47
2022/08/21 05:51:10;;;;;;;4.68;2.25;;;;;;;16.08;91.00;101429.13;5015959;28;20187;-47
2022/08/21 05:53:36;;;;;;;5.65;2.33;;;;;;;16.27;90.14;101425.38;5020180;28;20199;-48
2022/08/21 05:56:03;;;;;;;9.05;3.38;;;;;;;16.68;88.86;101435.84;5016855;28;20654;-48
2022/08/21 05:58:30;;;;;;;6.72;2.92;;;;;;;17.09;86.19;101419.16;5016349;28;20589;-50
2022/08/21 06:00:57;;;;;;;4.00;2.38;;;;;;;17.40;84.02;101430.09;5015149;28;20180;-49
2022/08/21 06:03:31;;;;;;;5.72;2.45;;;;;;;17.77;83.42;101436.09;5030330;28;20302;-47
2022/08/21 06:05:58;;;;;;;7.88;2.53;;;;;;;18.02;81.25;101424.72;5014304;28;20172;-48
2022/08/21 06:08:24;;;;;;;4.70;2.15;;;;;;;17.91;78.36;101420.78;5014777;28;20220;-50
2022/08/21 06:10:52;;;;;;;7.15;2.85;;;;;;;18.10;77.60;101412.44;5016129;28;20688;-48
2022/08/21 06:13:19;;;;;;;6.47;2.28;;;;;;;18.48;77.20;101401.06;5018649;28;20180;-48
2022/08/21 06:15:45;;;;;;;5.90;2.13;;;;;;;18.51;74.68;101405.41;5019055;28;20214;-49
2022/08/21 06:18:11;;;;;;;6.80;2.17;;;;;;;18.97;74.36;101407.09;5028859;28;20176;-50
2022/08/21 06:20:37;;;;;;;4.53;2.22;;;;;;;19.04;72.21;101408.44;5021275;28;20191;-48
2022/08/21 06:23:03;;;;;;;4.40;1.95;;;;;;;19.16;71.86;101404.94;5023913;28;20215;-50
2022/08/21 06:25:29;;;;;;;5.80;1.73;;;;;;;19.03;71.21;101399.41;5018370;28;20603;-49
2022/08/21 06:28:07;;;;;;;7.60;1.92;;;;;;;19.44;70.23;101411.25;5016259;28;20244;-48
2022/08/21 06:30:35;;;;;;;6.95;2.03;;;;;;;19.72;69.92;101400.31;5013375;28;20218;-48
2022/08/21 06:33:01;;;;;;;6.03;1.90;;;;;;;19.77;68.30;101402.72;5014047;28;20279;-48
2022/08/21 06:35:28;;;;;;;5.28;2.00;;;;;;;19.66;68.27;101403.41;5017088;28;20703;-48
2022/08/21 06:37:54;;;;;;;4.97;1.40;;;;;;;19.68;67.00;101398.75;5024587;28;20184;-50
2022/08/21 06:40:19;;;;;;;5.22;1.50;;;;;;;19.42;67.86;101402.34;5022501;28;20721;-49
2022/08/21 06:42:45;;;;;;;7.65;1.80;;;;;;;20.08;68.24;101398.78;5022237;28;20211;-49
2022/08/21 06:45:10;;;;;;;4.07;1.50;;;;;;;20.41;66.69;101399.25;5022113;28;20232;-48
2022/08/21 06:47:36;;;;;;;6.13;1.80;;;;;;;20.48;64.93;101389.66;5025179;28;20184;-47
2022/08/21 06:50:04;;;;;;;3.80;1.73;;;;;;;20.66;65.01;101401.13;5019556;28;20275;-49
2022/08/21 06:52:29;;;;;;;5.15;1.60;;;;;;;20.37;65.02;101396.72;5017339;28;20469;-47
2022/08/21 06:54:55;;;;;;;5.60;1.60;;;;;;;20.32;64.49;101384.44;5014267;28;20209;-48
2022/08/21 06:57:21;;;;;;;5.63;1.60;;;;;;;20.95;63.29;101389.00;5013415;28;20175;-48
2022/08/21 06:59:47;;;;;;;4.45;1.70;;;;;;;20.79;63.69;101388.34;5017202;28;20326;-48
2022/08/21 07:02:12;;;;;;;5.97;1.83;;;;;;;20.96;64.09;101389.84;5022019;28;20280;-48
2022/08/21 07:04:38;;;;;;;5.20;1.92;;;;;;;21.30;63.87;101390.09;5019651;28;20195;-46
2022/08/21 07:07:03;;;;;;;6.80;1.80;;;;;;;21.09;64.09;101389.84;5021197;28;20191;-50
2022/08/21 07:09:29;;;;;;;5.55;1.75;;;;;;;21.16;63.53;101385.66;5022504;28;20244;-49
2022/08/21 07:11:56;;;;;;;5.22;1.90;;;;;;;21.54;62.53;101373.78;5024842;28;20175;-51
2022/08/21 07:14:22;;;;;;;6.40;1.60;;;;;;;21.97;61.29;101368.63;5025966;28;20203;-49
2022/08/21 07:16:48;;;;;;;5.55;2.03;;;;;;;21.90;59.27;101375.53;5015273;28;20181;-49
2022/08/21 07:19:14;;;;;;;4.25;1.30;;;;;;;21.90;57.66;101380.13;5012434;28;20192;-48
2022/08/21 07:21:40;;;;;;;3.92;1.60;;;;;;;21.68;57.60;101384.50;5019220;28;20190;-49
2022/08/21 07:24:05;;;;;;;3.70;1.50;;;;;;;21.81;57.95;101374.38;5018873;28;20210;-50
2022/08/21 07:26:31;;;;;;;9.10;1.92;;;;;;;21.80;58.73;101378.13;5023883;28;20228;-49
2022/08/21 07:28:56;;;;;;;4.35;1.30;;;;;;;21.47;58.21;101373.41;5018823;28;20601;-49
2022/08/21 07:31:24;;;;;;;4.47;1.40;;;;;;;21.55;58.35;101390.00;5021740;28;20219;-50
2022/08/21 07:33:50;;;;;;;3.97;1.35;;;;;;;22.04;57.61;101377.22;5022645;28;20768;-50
2022/08/21 07:36:17;;;;;;;5.13;1.60;;;;;;;21.65;58.01;101379.28;5023960;28;20200;-50
2022/08/21 07:38:42;;;;;;;4.93;1.40;;;;;;;21.77;57.45;101372.88;5026034;28;20584;-49
2022/08/21 07:41:17;;;;;;;2.45;1.13;;;;;;;22.51;56.89;101364.41;5027835;28;20275;-48
2022/08/21 07:43:44;;;;;;;4.07;1.50;;;;;;;22.52;55.48;101363.44;5029948;28;20211;-48
2022/08/21 07:46:10;;;;;;;3.20;1.40;;;;;;;22.45;55.73;101359.44;5021741;28;20188;-49
2022/08/21 07:48:36;;;;;;;9.88;1.52;;;;;;;22.60;55.13;101349.16;5013836;28;20200;-48
2022/08/21 07:51:06;;;;;;;4.22;1.38;;;;;;;22.82;54.40;101351.00;5015694;28;20181;-49
2022/08/21 07:53:32;;;;;;;3.88;1.17;;;;;;;22.75;54.98;101353.38;5017626;28;20582;-48
2022/08/21 07:55:58;;;;;;;3.22;1.38;;;;;;;23.24;54.22;101352.09;5019598;28;20182;-50
2022/08/21 07:58:23;;;;;;;9.48;1.90;;;;;;;22.35;53.15;101359.31;5021546;28;20182;-50
2022/08/21 08:00:49;;;;;;;7.68;1.63;;;;;;;22.30;53.91;101356.09;5023146;28;20179;-49
2022/08/21 08:03:14;;;;;;;3.05;1.33;;;;;;;22.62;55.00;101358.09;5025636;28;20720;-48
2022/08/21 08:05:40;;;;;;;4.07;1.55;;;;;;;22.74;54.03;101350.75;5027295;28;20204;-48
2022/08/21 08:08:06;;;;;;;3.78;1.65;;;;;;;23.18;54.17;101349.88;5029558;28;20207;-49
2022/08/21 08:10:32;;;;;;;6.03;1.58;;;;;;;22.71;53.54;101360.06;5024198;28;20175;-47
2022/08/21 08:12:58;;;;;;;4.00;1.40;;;;;;;23.20;52.53;101352.47;5013512;28;20613;-48
2022/08/21 08:15:27;;;;;;;3.67;1.25;;;;;;;22.72;53.00;101356.34;5015050;28;20243;-48
2022/08/21 08:17:54;;;;;;;5.65;1.63;;;;;;;22.39;52.79;101357.19;5016947;28;20175;-48
2022/08/21 08:20:21;;;;;;;5.93;1.73;;;;;;;22.71;52.05;101349.13;5022248;28;20239;-50
2022/08/21 08:22:47;;;;;;;4.57;1.50;;;;;;;23.00;52.64;101341.34;5018268;28;20294;-49
2022/08/21 08:25:13;;;;;;;6.30;1.70;;;;;;;23.04;52.46;101342.78;5018423;28;20674;-49
2022/08/21 08:27:40;;;;;;;2.33;1.45;;;;;;;23.10;51.22;101335.09;5016430;28;20183;-49
2022/08/21 08:30:07;;;;;;;4.13;1.65;;;;;;;23.16;52.01;101335.47;5013957;28;20183;-48
2022/08/21 08:32:33;;;;;;;2.65;1.60;;;;;;;23.23;52.47;101333.06;5012908;28;20196;-48
2022/08/21 08:34:59;;;;;;;6.70;1.40;;;;;;;23.47;51.39;101334.75;5011037;28;20196;-48
2022/08/21 08:37:24;;;;;;;4.85;1.30;;;;;;;23.79;52.50;101338.38;5012747;28;20199;-50
2022/08/21 08:39:50;;;;;;;3.88;1.20;;;;;;;23.61;51.69;101327.09;5014165;28;20188;-47
2022/08/21 08:42:29;;;;;;;4.30;1.50;;;;;;;23.67;51.92;101328.44;5017125;28;20188;-48
2022/08/21 08:45:03;;;;;;;4.45;1.40;;;;;;;23.36;51.67;101330.19;5018216;28;20333;-48
2022/08/21 08:47:32;;;;;;;6.05;1.85;;;;;;;23.33;51.43;101339.53;5020007;28;20198;-49
2022/08/21 08:50:04;;;;;;;7.50;1.75;;;;;;;23.50;52.28;101315.31;5017517;28;20711;-48
2022/08/21 08:52:34;;;;;;;1.98;1.38;;;;;;;23.06;52.92;101325.41;5024517;28;20213;-49
2022/08/21 08:55:36;;;;;;;6.10;1.58;;;;;;;23.41;52.16;101311.50;5026921;28;20261;-49
2022/08/21 08:58:03;;;;;;;7.35;1.45;;;;;;;23.16;53.36;101323.66;5015740;28;20286;-47
2022/08/21 09:00:30;;;;;;;4.25;1.63;;;;;;;23.55;52.60;101311.22;5012467;28;20667;-49
2022/08/21 09:02:59;;;;;;;5.82;1.85;;;;;;;23.47;52.59;101307.41;5013022;28;20182;-48
2022/08/21 09:05:28;;;;;;;5.07;1.63;;;;;;;23.65;53.07;101312.13;5017787;28;20579;-48
2022/08/21 09:08:07;;;;;;;4.82;1.42;;;;;;;23.72;53.48;101307.00;5023146;28;20211;-49
2022/08/21 09:11:00;;;;;;;5.32;1.80;;;;;;;23.94;53.51;101314.28;5008897;28;20194;-49
2022/08/21 09:13:28;;;;;;;5.88;1.90;;;;;;;23.33;52.55;101319.50;5020349;28;20211;-47
2022/08/21 09:16:38;;;;;;;5.50;1.50;;;;;;;23.57;53.45;101319.25;5021225;28;20678;-47
2022/08/21 09:19:11;;;;;;;7.20;1.60;;;;;;;24.50;52.24;101304.81;4998318;28;20204;-48
2022/08/21 09:21:53;;;;;;;4.07;1.50;;;;;;;24.55;51.61;101307.97;5027620;28;20190;-47
2022/08/21 09:24:21;;;;;;;5.18;1.92;;;;;;;24.60;51.69;101304.84;5020370;28;20203;-50
2022/08/21 09:27:05;;;;;;;5.70;1.90;;;;;;;24.18;52.78;101302.16;5013946;28;20243;-47
2022/08/21 09:29:34;;;;;;;9.00;1.73;;;;;;;24.45;52.67;101307.06;5013235;28;20212;-48
2022/08/21 09:31:59;;;;;;;6.60;1.55;;;;;;;24.40;53.11;101302.00;5016010;28;20199;-48
2022/08/21 09:34:31;;;;;;;8.23;1.80;;;;;;;24.05;52.28;101307.84;5017681;28;20694;-48
2022/08/21 09:36:57;;;;;;;4.88;1.88;;;;;;;24.55;53.52;101297.03;5025937;28;20183;-47
2022/08/21 09:39:38;;;;;;;4.93;1.55;;;;;;;24.41;53.04;101300.13;5016664;28;20193;-48
2022/08/21 09:42:06;;;;;;;4.25;1.40;;;;;;;24.38;52.44;101300.38;5024219;28;20197;-48
2022/08/21 09:44:43;;;;;;;5.95;1.60;;;;;;;24.32;53.43;101307.28;5025616;28;20219;-49
2022/08/21 09:47:12;;;;;;;7.90;2.40;;;;;;;24.47;53.10;101305.06;5028158;28;20650;-48
2022/08/21 09:49:41;;;;;;;4.38;1.70;;;;;;;24.14;53.23;101304.31;5013768;28;20235;-49
2022/08/21 09:52:24;;;;;;;6.15;1.83;;;;;;;24.15;54.10;101296.97;5012223;28;20282;-48
2022/08/21 09:54:54;;;;;;;5.93;1.90;;;;;;;24.21;52.60;101296.44;5014097;28;20223;-47
2022/08/21 09:57:46;;;;;;;5.32;1.75;;;;;;;24.36;53.18;101294.16;5026270;28;20228;-49
2022/08/21 10:00:29;;;;;;;7.22;1.88;;;;;;;24.50;54.07;101298.47;5019510;28;20242;-48
2022/08/21 10:03:09;;;;;;;6.30;1.92;;;;;;;24.00;52.78;101293.69;5020319;28;20187;-49
2022/08/21 10:05:34;;;;;;;8.05;2.13;;;;;;;24.40;53.61;101292.91;5016062;28;20183;-48
2022/08/21 10:08:01;;;;;;;4.88;1.75;;;;;;;24.23;53.33;101289.81;5013636;28;20578;-48
2022/08/21 10:10:30;;;;;;;6.35;1.90;;;;;;;24.36;53.09;101285.94;5012071;28;20188;-48
2022/08/21 10:13:06;;;;;;;5.20;1.65;;;;;;;24.66;53.16;101283.25;5024555;28;20675;-48
2022/08/21 10:15:53;;;;;;;4.15;1.63;;;;;;;24.29;52.79;101282.03;5010576;28;20221;-49
2022/08/21 10:18:28;;;;;;;5.65;1.98;;;;;;;24.58;52.59;101285.81;5013769;28;20188;-49
2022/08/21 10:21:08;;;;;;;6.88;2.22;;;;;;;24.47;53.15;101278.53;5014608;28;20257;-48
2022/08/21 10:23:57;;;;;;;3.60;1.63;;;;;;;24.56;52.08;101282.34;5021196;28;20207;-48
2022/08/21 10:26:43;;;;;;;8.35;2.08;;;;;;;24.62;52.77;101276.31;5018512;28;20222;-48
2022/08/21 10:29:43;;;;;;;8.25;2.25;;;;;;;24.77;53.30;101286.88;5016065;28;20311;-50
2022/08/21 10:32:23;;;;;;;5.22;1.98;;;;;;;24.64;53.47;101281.63;5013897;28;20205;-48
2022/08/21 10:35:22;;;;;;;6.70;2.15;;;;;;;24.12;54.39;101275.31;5026380;28;20207;-47
2022/08/21 10:38:03;;;;;;;6.78;2.00;;;;;;;23.92;54.32;101279.81;5019689;28;20249;-48
2022/08/21 10:40:49;;;;;;;4.70;1.83;;;;;;;23.77;54.15;101285.63;5009855;28;20188;-49
2022/08/21 10:43:32;;;;;;;6.53;2.20;;;;;;;23.45;55.64;101286.50;5012834;28;20651;-49
2022/08/21 10:46:02;;;;;;;6.88;1.80;;;;;;;23.97;54.36;101280.28;5016159;28;20536;-48
2022/08/21 10:48:42;;;;;;;10.00;2.10;;;;;;;23.97;53.86;101280.28;5021446;28;20202;-47
2022/08/21 10:51:23;;;;;;;4.60;1.80;;;;;;;24.18;53.11;101289.34;5036840;28;20211;-46
2022/08/21 10:53:57;;;;;;;5.63;1.88;;;;;;;24.00;53.19;101290.97;5025170;28;20211;-48
2022/08/21 10:56:33;;;;;;;7.50;2.00;;;;;;;23.37;55.03;101288.16;5026933;28;20188;-47
2022/08/21 10:59:16;;;;;;;9.50;2.40;;;;;;;22.84;55.51;101302.56;5026388;28;20708;-48
2022/08/21 11:01:42;;;;;;;5.97;1.90;;;;;;;23.38;56.23;101303.56;5013568;28;20677;-48
2022/08/21 11:04:52;;;;;;;5.47;1.88;;;;;;;23.70;54.35;101294.47;5030218;28;20208;-47
2022/08/21 11:07:21;;;;;;;4.05;1.90;;;;;;;23.80;54.44;101296.31;5025589;28;20241;-52
2022/08/21 11:09:49;;;;;;;6.40;1.85;;;;;;;24.11;53.21;101292.75;5025996;28;20208;-47
2022/08/21 11:12:34;;;;;;;5.18;1.70;;;;;;;24.41;53.76;101292.75;5023464;28;20542;-49
2022/08/21 11:15:11;;;;;;;6.50;1.50;;;;;;;24.97;51.08;101290.50;5021900;28;20796;-46
2022/08/21 11:17:47;;;;;;;3.00;1.40;;;;;;;24.80;49.91;101286.59;5018949;28;20211;-48
2022/08/21 11:20:29;;;;;;;4.10;1.42;;;;;;;24.72;50.16;101280.94;5017507;28;20210;-50
2022/08/21 11:23:02;;;;;;;3.20;1.50;;;;;;;25.06;48.49;101285.06;5028820;28;20188;-46
2022/08/21 11:25:36;;;;;;;2.55;1.58;;;;;;;25.54;48.22;101286.16;5013627;28;20230;-47
2022/08/21 11:28:35;;;;;;;3.05;1.50;;;;;;;25.09;45.48;101290.25;5020229;28;20192;-47
2022/08/21 11:31:03;;;;;;;4.10;1.50;;;;;;;24.98;47.35;101292.25;5011265;28;20207;-52